Mount Darwin, Zimbabwe
Current Conditions -  °F | °C
As of 8:00 AM on Thursday 23 Oct 2014 (Local Time) from FVHA Reporting Station
Clear Clear  
Wind Chill: 66°   Ceiling: Unl
Heat Index: 66°   Visibility: 6mi
Dew Point: 54°   Wind: 6mph
Humidity: 64%   Direction: 70°ENE
Pressure: 30.27"   Gusts: NA
Location:  16.77°S, 31.58°E
Report Text: FVHA 230600Z 07005KT CAVOK 19/12 Q1025 NOSIG
Loading
Personal Weather Stations






























Interactive Weather Map
Tropical Storm Tracking
New forecast layout! Learn more

10-Day Weather Forecast

Advertisements
Track Severe Weather on mobile